Friendship, Louisiana
Current Conditions -  °F | °C
As of 9:35 PM on Friday 31 Oct 2014 (Local Time) from KRSN Reporting Station
Clear Clear  
Wind Chill: 52°   Ceiling: Unl
Heat Index: 52°   Visibility: 10mi
Dew Point: 46°   Wind: 5mph
Humidity: 81%   Direction: 350°N
Pressure: 30.31"   Gusts: NA
Location:  32.0547°N, 92.4144°W
Report Text: KRSN 010235Z AUTO 35004KT 10SM CLR 11/08 A3031 RMK AO2 T01100078
Loading
Personal Weather Stations






























Interactive Weather Map
Tropical Storm Tracking
New forecast layout! Learn more

10-Day Weather Forecast

Advertisements
Track Severe Weather on mobile